createdAt,value
2023-03-10T00:01:26.032Z,6.00
2023-03-10T00:03:54.492Z,6.00
2023-03-10T00:06:27.254Z,6.20
2023-03-10T00:08:55.218Z,5.90
2023-03-10T00:11:23.993Z,5.90
2023-03-10T00:13:53.539Z,5.90
2023-03-10T00:16:29.546Z,5.90
2023-03-10T00:18:58.555Z,5.90
2023-03-10T00:21:28.646Z,5.80
2023-03-10T00:23:57.977Z,5.70
2023-03-10T00:26:27.932Z,5.70
2023-03-10T00:28:56.185Z,5.80
2023-03-10T00:31:26.390Z,5.70
2023-03-10T00:33:55.051Z,5.60
2023-03-10T00:36:24.772Z,5.50
2023-03-10T00:38:55.064Z,5.30
2023-03-10T00:41:24.544Z,5.30
2023-03-10T00:43:52.590Z,5.30
2023-03-10T00:46:21.198Z,5.30
2023-03-10T00:48:49.543Z,5.40
2023-03-10T00:51:17.026Z,5.40
2023-03-10T00:53:44.681Z,5.50
2023-03-10T00:56:20.120Z,5.40
2023-03-10T00:58:51.445Z,5.30
2023-03-10T01:01:24.813Z,5.30
2023-03-10T01:03:56.712Z,5.20
2023-03-10T01:06:25.484Z,5.30
2023-03-10T01:08:52.947Z,5.40
2023-03-10T01:11:24.009Z,5.20
2023-03-10T01:13:53.343Z,5.20
2023-03-10T01:16:20.945Z,5.20
2023-03-10T01:18:48.122Z,5.00
2023-03-10T01:21:25.771Z,5.10
2023-03-10T01:23:53.659Z,5.20
2023-03-10T01:26:20.988Z,5.10
2023-03-10T01:28:49.421Z,5.00
2023-03-10T01:31:17.522Z,4.80
2023-03-10T01:33:46.430Z,4.80
2023-03-10T01:36:20.201Z,4.70
2023-03-10T01:38:50.940Z,4.70
2023-03-10T01:41:19.094Z,4.60
2023-03-10T01:43:48.879Z,4.50
2023-03-10T01:46:27.659Z,4.60
2023-03-10T01:49:02.687Z,4.60
2023-03-10T01:51:33.894Z,4.50
2023-03-10T01:54:04.910Z,4.40
2023-03-10T01:56:32.511Z,4.40
2023-03-10T01:58:59.524Z,4.50
2023-03-10T02:01:29.361Z,4.20
2023-03-10T02:04:11.053Z,4.30
2023-03-10T02:06:41.837Z,4.30
2023-03-10T02:09:10.623Z,4.20
2023-03-10T02:11:43.672Z,4.30
2023-03-10T02:14:12.278Z,4.30
2023-03-10T02:16:40.451Z,4.20
2023-03-10T02:19:14.839Z,4.10
2023-03-10T02:22:05.397Z,4.20
2023-03-10T02:24:46.070Z,4.00
2023-03-10T02:27:16.168Z,4.20
2023-03-10T02:29:59.155Z,4.20
2023-03-10T02:32:30.765Z,4.10
2023-03-10T02:35:00.445Z,4.10
2023-03-10T02:37:30.650Z,4.00
2023-03-10T02:39:59.191Z,3.90
2023-03-10T02:42:33.786Z,3.90
2023-03-10T02:45:03.108Z,3.90
2023-03-10T02:47:30.026Z,3.80
2023-03-10T02:49:57.326Z,3.80
2023-03-10T02:52:34.370Z,3.70
2023-03-10T02:55:01.348Z,3.70
2023-03-10T02:57:29.769Z,3.80
2023-03-10T02:59:56.920Z,3.80
2023-03-10T03:02:24.058Z,3.80
2023-03-10T03:04:54.242Z,3.60
2023-03-10T03:07:21.276Z,3.50
2023-03-10T03:09:50.498Z,3.60
2023-03-10T03:12:17.707Z,3.50
2023-03-10T03:14:45.916Z,3.30
2023-03-10T03:17:13.608Z,3.20
2023-03-10T03:19:43.304Z,3.30
2023-03-10T03:22:10.284Z,3.40
2023-03-10T03:24:37.258Z,3.30
2023-03-10T03:27:06.421Z,3.40
2023-03-10T03:29:38.548Z,3.30
2023-03-10T03:32:09.081Z,3.30
2023-03-10T03:34:37.235Z,3.20
2023-03-10T03:37:05.827Z,3.30
2023-03-10T03:39:36.884Z,3.60
2023-03-10T03:42:06.980Z,3.40
2023-03-10T03:44:44.286Z,3.50
2023-03-10T03:47:11.877Z,3.50
2023-03-10T03:49:40.378Z,3.60
2023-03-10T03:52:08.935Z,3.50
2023-03-10T03:54:36.447Z,3.40
2023-03-10T03:57:05.748Z,3.50
2023-03-10T03:59:32.778Z,3.30
2023-03-10T04:02:03.380Z,3.20
2023-03-10T04:04:30.341Z,3.20
2023-03-10T04:06:58.516Z,3.20
2023-03-10T04:09:25.574Z,3.10
2023-03-10T04:11:54.060Z,3.10
2023-03-10T04:14:22.068Z,3.00
2023-03-10T04:16:50.537Z,3.00
2023-03-10T04:19:20.965Z,3.00
2023-03-10T04:21:50.754Z,2.90
2023-03-10T04:24:17.759Z,2.90
2023-03-10T04:26:44.680Z,2.80
2023-03-10T04:29:11.777Z,2.90
2023-03-10T04:31:41.144Z,2.80
2023-03-10T04:34:09.941Z,2.80
2023-03-10T04:36:39.764Z,2.60
2023-03-10T04:39:10.701Z,2.60
2023-03-10T04:41:38.382Z,2.70
2023-03-10T04:44:09.499Z,2.80
2023-03-10T04:46:44.458Z,2.80
2023-03-10T04:49:16.431Z,2.80
2023-03-10T04:51:45.919Z,2.80
2023-03-10T04:54:12.928Z,2.70
2023-03-10T04:56:40.555Z,2.60
2023-03-10T04:59:09.039Z,2.70
2023-03-10T05:01:36.193Z,2.80
2023-03-10T05:04:06.156Z,2.80
2023-03-10T05:06:34.860Z,2.80
2023-03-10T05:09:21.064Z,2.80
2023-03-10T05:11:50.218Z,2.80
2023-03-10T05:14:19.106Z,2.70
2023-03-10T05:16:48.639Z,2.80
2023-03-10T05:19:17.271Z,2.80
2023-03-10T05:21:45.808Z,2.70
2023-03-10T05:24:12.904Z,2.60
2023-03-10T05:26:40.020Z,2.60
2023-03-10T05:29:07.126Z,2.70
2023-03-10T05:31:40.230Z,2.60
2023-03-10T05:34:16.722Z,2.40
2023-03-10T05:36:45.767Z,2.40
2023-03-10T05:39:13.945Z,2.40
2023-03-10T05:41:46.119Z,2.40
2023-03-10T05:44:14.168Z,2.50
2023-03-10T05:46:41.680Z,2.70
2023-03-10T05:49:09.250Z,2.90
2023-03-10T05:51:45.458Z,2.80
2023-03-10T05:54:13.034Z,2.90
2023-03-10T05:56:40.071Z,2.80
2023-03-10T05:59:08.686Z,2.70
2023-03-10T06:01:37.441Z,2.70
2023-03-10T06:04:05.887Z,2.70
2023-03-10T06:06:33.054Z,2.80
2023-03-10T06:09:00.975Z,2.80
2023-03-10T06:11:29.725Z,2.70
2023-03-10T06:13:56.752Z,2.60
2023-03-10T06:16:23.714Z,2.80
2023-03-10T06:18:56.430Z,2.90
2023-03-10T06:21:25.300Z,2.90
2023-03-10T06:23:53.250Z,3.20
2023-03-10T06:26:23.870Z,3.20
2023-03-10T06:28:52.009Z,3.50
2023-03-10T06:31:24.615Z,3.70
2023-03-10T06:33:51.905Z,3.80
2023-03-10T06:36:21.282Z,3.90
2023-03-10T06:38:48.843Z,4.20
2023-03-10T06:41:16.668Z,4.30
2023-03-10T06:43:44.544Z,4.30
2023-03-10T06:46:13.823Z,4.60
2023-03-10T06:48:41.961Z,4.90
2023-03-10T06:51:12.857Z,5.10
2023-03-10T06:53:39.849Z,5.40
2023-03-10T06:56:13.024Z,5.60
2023-03-10T06:58:40.567Z,5.90
2023-03-10T07:01:08.707Z,6.10
2023-03-10T07:03:36.527Z,6.40
2023-03-10T07:06:04.991Z,6.70
2023-03-10T07:08:32.178Z,7.00
2023-03-10T07:10:59.130Z,7.40
2023-03-10T07:13:26.920Z,7.60
2023-03-10T07:15:53.882Z,7.90
2023-03-10T07:18:23.121Z,8.20
2023-03-10T07:20:53.055Z,8.40
2023-03-10T07:23:20.448Z,8.70
2023-03-10T07:25:52.601Z,9.00
2023-03-10T07:28:19.771Z,9.20
2023-03-10T07:30:46.740Z,9.40
2023-03-10T07:33:16.093Z,9.60
2023-03-10T07:35:46.145Z,9.80
2023-03-10T07:38:14.160Z,9.90
2023-03-10T07:40:41.348Z,10.10
2023-03-10T07:43:09.208Z,9.90
2023-03-10T07:45:39.921Z,10.20
2023-03-10T07:48:07.239Z,10.40
2023-03-10T07:50:34.420Z,10.70
2023-03-10T07:53:01.343Z,10.90
2023-03-10T07:55:28.317Z,11.00
2023-03-10T07:58:13.824Z,11.10
2023-03-10T08:00:41.754Z,11.30
2023-03-10T08:03:08.840Z,11.50
2023-03-10T08:05:43.460Z,11.50
2023-03-10T08:08:12.154Z,11.70
2023-03-10T08:10:40.484Z,12.00
2023-03-10T08:13:08.567Z,12.00
2023-03-10T08:15:35.649Z,12.20
2023-03-10T08:18:05.580Z,12.30
2023-03-10T08:20:33.708Z,12.40
2023-03-10T08:23:00.751Z,12.50
2023-03-10T08:25:28.210Z,12.40
2023-03-10T08:27:56.487Z,12.70
2023-03-10T08:30:23.791Z,12.80
2023-03-10T08:32:51.938Z,12.60
2023-03-10T08:35:19.037Z,12.60
2023-03-10T08:37:46.398Z,12.50
2023-03-10T08:40:16.155Z,12.70
2023-03-10T08:42:43.097Z,12.90
2023-03-10T08:45:11.498Z,13.20
2023-03-10T08:47:38.851Z,13.20
2023-03-10T08:50:10.468Z,13.40
2023-03-10T08:52:38.140Z,13.60
2023-03-10T08:55:06.485Z,13.70
2023-03-10T08:57:33.808Z,13.80
2023-03-10T09:00:00.762Z,13.90
2023-03-10T09:02:29.595Z,14.10
2023-03-10T09:04:56.654Z,14.30
2023-03-10T09:07:23.669Z,14.20
2023-03-10T09:09:50.639Z,14.00
2023-03-10T09:12:17.598Z,14.60
2023-03-10T09:14:44.592Z,15.30
2023-03-10T09:17:15.882Z,15.50
2023-03-10T09:19:42.952Z,15.40
2023-03-10T09:22:11.272Z,15.30
2023-03-10T09:24:40.635Z,15.50
2023-03-10T09:27:07.696Z,15.60
2023-03-10T09:29:43.017Z,15.90
2023-03-10T09:32:12.230Z,16.10
2023-03-10T09:34:39.774Z,15.90
2023-03-10T09:37:08.500Z,15.90
2023-03-10T09:39:36.599Z,16.30
2023-03-10T09:42:39.760Z,16.10
2023-03-10T09:45:27.023Z,16.30
2023-03-10T09:48:09.938Z,16.70
2023-03-10T09:50:48.743Z,17.00
2023-03-10T09:53:27.518Z,16.90
2023-03-10T09:55:54.925Z,16.90
2023-03-10T09:58:33.576Z,17.10
2023-03-10T10:01:03.718Z,17.20
2023-03-10T10:03:51.561Z,17.50
2023-03-10T10:06:37.430Z,17.30
2023-03-10T10:09:11.866Z,17.70
2023-03-10T10:11:40.255Z,17.70
2023-03-10T10:14:38.447Z,17.70
2023-03-10T10:17:21.106Z,18.00
2023-03-10T10:19:48.873Z,18.40
2023-03-10T10:22:26.953Z,18.50
2023-03-10T10:25:21.663Z,18.70
2023-03-10T10:27:52.930Z,19.00
2023-03-10T10:30:27.705Z,19.10
2023-03-10T10:33:01.689Z,19.60
2023-03-10T10:35:35.428Z,20.40
2023-03-10T10:38:27.422Z,20.00
2023-03-10T10:41:28.055Z,20.60
2023-03-10T10:44:06.708Z,21.10
2023-03-10T10:46:34.064Z,20.90
2023-03-10T10:49:21.981Z,20.00
2023-03-10T10:52:18.102Z,19.80
2023-03-10T10:54:54.241Z,20.20
2023-03-10T10:57:25.895Z,20.10
2023-03-10T10:59:53.301Z,20.60
2023-03-10T11:02:39.436Z,20.60
2023-03-10T11:05:32.800Z,21.50
2023-03-10T11:08:17.831Z,21.80
2023-03-10T11:10:50.988Z,22.50
2023-03-10T11:13:39.314Z,22.30
2023-03-10T11:16:28.561Z,21.60
2023-03-10T11:19:24.307Z,21.20
2023-03-10T11:21:54.902Z,20.60
2023-03-10T11:24:42.262Z,21.00
2023-03-10T11:27:33.831Z,21.30
2023-03-10T11:30:16.530Z,21.20
2023-03-10T11:33:02.536Z,20.90
2023-03-10T11:35:37.517Z,21.10
2023-03-10T11:38:16.509Z,21.20
2023-03-10T11:40:58.103Z,21.40
2023-03-10T11:43:46.930Z,21.20
2023-03-10T11:46:17.853Z,21.00
2023-03-10T11:48:54.311Z,20.60
2023-03-10T11:51:21.779Z,20.00
2023-03-10T11:53:53.829Z,19.60
2023-03-10T11:56:23.605Z,19.10
2023-03-10T11:59:16.069Z,19.00
2023-03-10T12:02:18.538Z,19.00
2023-03-10T12:04:55.335Z,19.40
2023-03-10T12:07:40.155Z,19.10
2023-03-10T12:10:12.138Z,19.20
2023-03-10T12:12:47.139Z,19.80
2023-03-10T12:15:25.835Z,20.10
2023-03-10T12:18:13.925Z,20.10
2023-03-10T12:20:41.268Z,19.80
2023-03-10T12:23:10.978Z,19.70
2023-03-10T12:25:38.532Z,20.30
2023-03-10T12:28:25.912Z,20.30
2023-03-10T12:30:59.649Z,21.10
2023-03-10T12:33:38.134Z,21.30
2023-03-10T12:36:23.262Z,21.50
2023-03-10T12:38:58.721Z,21.40
2023-03-10T12:41:30.009Z,21.90
2023-03-10T12:44:30.569Z,21.90
2023-03-10T12:47:20.064Z,22.10
2023-03-10T12:50:17.141Z,22.10
2023-03-10T12:52:45.122Z,21.90
2023-03-10T12:55:21.036Z,21.30
2023-03-10T12:58:08.693Z,20.80
2023-03-10T13:00:48.253Z,20.50
2023-03-10T13:03:38.556Z,20.80
2023-03-10T13:06:23.026Z,21.40
2023-03-10T13:08:58.527Z,21.70
2023-03-10T13:11:48.997Z,22.10
2023-03-10T13:14:24.267Z,22.50
2023-03-10T13:17:30.039Z,23.00
2023-03-10T13:20:04.419Z,22.60
2023-03-10T13:22:32.407Z,22.90
2023-03-10T13:25:02.376Z,23.30
2023-03-10T13:27:33.410Z,23.20
2023-03-10T13:30:17.244Z,22.70
2023-03-10T13:32:58.647Z,23.00
2023-03-10T13:35:38.041Z,23.20
2023-03-10T13:38:12.628Z,23.90
2023-03-10T13:40:43.238Z,24.20
2023-03-10T13:43:45.956Z,24.00
2023-03-10T13:46:19.543Z,23.50
2023-03-10T13:48:48.171Z,23.10
2023-03-10T13:51:18.183Z,23.10
2023-03-10T13:53:47.763Z,22.90
2023-03-10T13:56:21.988Z,22.70
2023-03-10T13:58:51.068Z,21.90
2023-03-10T14:01:23.697Z,21.60
2023-03-10T14:04:06.027Z,21.10
2023-03-10T14:06:33.150Z,20.40
2023-03-10T14:09:23.383Z,19.80
2023-03-10T14:11:52.278Z,19.50
2023-03-10T14:14:34.903Z,19.20
2023-03-10T14:17:35.224Z,18.90
2023-03-10T14:20:02.329Z,18.60
2023-03-10T14:22:44.625Z,18.50
2023-03-10T14:25:16.505Z,18.30
2023-03-10T14:28:08.012Z,17.90
2023-03-10T14:30:35.173Z,17.60
2023-03-10T14:33:02.353Z,17.50
2023-03-10T14:35:30.186Z,17.30
2023-03-10T14:38:00.195Z,17.30
2023-03-10T14:40:27.484Z,17.20
2023-03-10T14:42:59.289Z,16.90
2023-03-10T14:45:33.411Z,16.70
2023-03-10T14:48:11.435Z,16.60
2023-03-10T14:50:38.691Z,16.50
2023-03-10T14:53:10.648Z,16.40
2023-03-10T14:55:38.827Z,16.40
2023-03-10T14:58:08.028Z,16.20
2023-03-10T15:00:38.839Z,16.10
2023-03-10T15:03:07.255Z,16.00
2023-03-10T15:05:47.489Z,15.80
2023-03-10T15:08:15.810Z,15.70
2023-03-10T15:10:48.782Z,15.70
2023-03-10T15:13:18.548Z,15.60
2023-03-10T15:15:48.713Z,15.50
2023-03-10T15:18:19.395Z,15.40
2023-03-10T15:20:46.958Z,15.40
2023-03-10T15:23:17.090Z,15.40
2023-03-10T15:25:46.119Z,15.40
2023-03-10T15:28:13.843Z,15.40
2023-03-10T15:30:41.182Z,15.50
2023-03-10T15:33:13.180Z,15.50
2023-03-10T15:35:41.015Z,15.60
2023-03-10T15:38:08.355Z,15.60
2023-03-10T15:40:36.815Z,15.70
2023-03-10T15:43:04.013Z,15.80
2023-03-10T15:45:32.396Z,15.80
2023-03-10T15:47:59.819Z,15.90
2023-03-10T15:50:27.755Z,15.80
2023-03-10T15:52:57.419Z,15.60
2023-03-10T15:55:26.210Z,15.70
2023-03-10T15:57:54.184Z,15.50
2023-03-10T16:00:26.272Z,15.40
2023-03-10T16:02:53.726Z,15.30
2023-03-10T16:05:21.482Z,15.20
2023-03-10T16:07:51.337Z,15.20
2023-03-10T16:10:20.296Z,15.20
2023-03-10T16:12:47.766Z,15.10
2023-03-10T16:15:17.973Z,15.00
2023-03-10T16:17:45.454Z,14.90
2023-03-10T16:20:14.148Z,14.90
2023-03-10T16:22:43.198Z,14.80
2023-03-10T16:25:15.210Z,14.60
2023-03-10T16:27:43.935Z,14.60
2023-03-10T16:30:13.333Z,14.40
2023-03-10T16:32:44.054Z,14.30
2023-03-10T16:35:12.243Z,14.20
2023-03-10T16:37:42.140Z,14.00
2023-03-10T16:40:10.436Z,14.00
2023-03-10T16:42:38.942Z,13.90
2023-03-10T16:45:07.691Z,13.70
2023-03-10T16:47:34.759Z,13.60
2023-03-10T16:50:02.029Z,13.60
2023-03-10T16:52:29.731Z,13.60
2023-03-10T16:54:58.960Z,13.50
2023-03-10T16:57:26.275Z,13.40
2023-03-10T16:59:53.383Z,13.40
2023-03-10T17:02:21.103Z,13.30
2023-03-10T17:04:50.797Z,13.30
2023-03-10T17:07:22.408Z,13.30
2023-03-10T17:09:50.703Z,13.20
2023-03-10T17:12:18.400Z,13.10
2023-03-10T17:14:45.904Z,13.10
2023-03-10T17:17:12.925Z,13.00
2023-03-10T17:19:39.999Z,12.90
2023-03-10T17:22:08.060Z,12.90
2023-03-10T17:24:37.191Z,12.80
2023-03-10T17:27:08.548Z,12.70
2023-03-10T17:29:36.487Z,12.60
2023-03-10T17:32:03.626Z,12.60
2023-03-10T17:34:31.021Z,12.60
2023-03-10T17:36:58.193Z,12.50
2023-03-10T17:39:27.618Z,12.50
2023-03-10T17:41:56.222Z,12.50
2023-03-10T17:44:25.843Z,12.50
2023-03-10T17:46:56.653Z,12.40
2023-03-10T17:49:24.451Z,12.30
2023-03-10T17:51:51.619Z,12.30
2023-03-10T17:54:22.084Z,12.30
2023-03-10T17:56:51.965Z,12.30
2023-03-10T17:59:19.620Z,12.30
2023-03-10T18:01:51.243Z,12.20
2023-03-10T18:04:19.133Z,12.20
2023-03-10T18:06:46.972Z,12.10
2023-03-10T18:09:15.964Z,12.10
2023-03-10T18:11:46.277Z,12.10
2023-03-10T18:14:14.275Z,12.10
2023-03-10T18:16:41.850Z,12.10
2023-03-10T18:19:11.325Z,12.00
2023-03-10T18:21:41.665Z,12.00
2023-03-10T18:24:12.480Z,12.00
2023-03-10T18:26:43.524Z,11.90
2023-03-10T18:29:12.021Z,11.90
2023-03-10T18:31:40.409Z,11.80
2023-03-10T18:34:08.334Z,11.80
2023-03-10T18:36:38.445Z,11.80
2023-03-10T18:39:08.389Z,11.80
2023-03-10T18:41:36.230Z,11.80
2023-03-10T18:44:06.040Z,11.70
2023-03-10T18:46:33.735Z,11.70
2023-03-10T18:49:02.780Z,11.70
2023-03-10T18:51:33.417Z,11.70
2023-03-10T18:54:02.246Z,11.70
2023-03-10T18:56:31.828Z,11.60
2023-03-10T18:59:05.852Z,11.60
2023-03-10T19:01:36.921Z,11.70
2023-03-10T19:04:06.622Z,11.70
2023-03-10T19:06:36.749Z,11.70
2023-03-10T19:09:10.143Z,11.70
2023-03-10T19:11:40.895Z,11.70
2023-03-10T19:14:11.418Z,11.70
2023-03-10T19:16:44.002Z,11.70
2023-03-10T19:19:12.568Z,11.60
2023-03-10T19:21:40.644Z,11.60
2023-03-10T19:24:10.175Z,11.60
2023-03-10T19:26:38.942Z,11.60
2023-03-10T19:29:07.733Z,11.70
2023-03-10T19:31:36.730Z,11.50
2023-03-10T19:34:04.727Z,11.50
2023-03-10T19:36:33.867Z,11.50
2023-03-10T19:39:03.258Z,11.50
2023-03-10T19:41:33.859Z,11.40
2023-03-10T19:44:02.286Z,11.30
2023-03-10T19:46:31.216Z,11.20
2023-03-10T19:49:01.477Z,11.20
2023-03-10T19:51:33.368Z,11.20
2023-03-10T20:15:11.522Z,10.90
2023-03-10T20:25:08.773Z,10.70
2023-03-10T20:27:37.671Z,10.60
2023-03-10T20:30:18.366Z,10.60
2023-03-10T20:32:48.180Z,10.50
2023-03-10T20:35:16.868Z,10.50
2023-03-10T20:37:46.132Z,10.50
2023-03-10T20:40:24.666Z,10.50
2023-03-10T20:42:57.492Z,10.40
2023-03-10T20:45:28.056Z,10.40
2023-03-10T20:48:08.776Z,10.40
2023-03-10T20:50:38.245Z,10.40
2023-03-10T20:53:07.846Z,10.40
2023-03-10T20:55:35.688Z,10.40
2023-03-10T20:58:03.782Z,10.40
2023-03-10T21:00:31.557Z,10.40
2023-03-10T21:03:00.844Z,10.50
2023-03-10T21:05:30.676Z,10.40
2023-03-10T21:08:01.051Z,10.40
2023-03-10T21:10:29.702Z,10.40
2023-03-10T21:12:57.406Z,10.40
2023-03-10T21:15:27.352Z,10.40
2023-03-10T21:17:55.913Z,10.40
2023-03-10T21:20:24.327Z,10.40
2023-03-10T21:22:52.616Z,10.40
2023-03-10T21:25:28.446Z,10.40
2023-03-10T21:28:00.958Z,10.40
2023-03-10T21:30:31.920Z,10.30
2023-03-10T21:33:01.453Z,10.30
2023-03-10T21:35:31.941Z,10.30
2023-03-10T21:38:00.470Z,10.20
2023-03-10T21:40:29.466Z,10.20
2023-03-10T21:42:57.338Z,10.10
2023-03-10T21:45:29.579Z,10.10
2023-03-10T21:47:59.390Z,10.10
2023-03-10T21:50:28.095Z,10.10
2023-03-10T21:52:56.530Z,10.10
2023-03-10T21:55:25.684Z,10.00
2023-03-10T21:57:53.063Z,9.90
2023-03-10T22:00:23.938Z,9.90
2023-03-10T22:02:53.660Z,9.90
2023-03-10T22:05:21.800Z,9.90
2023-03-10T22:07:53.383Z,9.90
2023-03-10T22:10:20.431Z,9.90
2023-03-10T22:12:48.045Z,9.80
2023-03-10T22:15:19.381Z,9.80
2023-03-10T22:17:49.749Z,9.80
2023-03-10T22:20:22.989Z,9.80
2023-03-10T22:22:50.155Z,9.80
2023-03-10T22:25:19.224Z,9.80
2023-03-10T22:27:53.095Z,9.80
2023-03-10T22:30:26.680Z,9.80
2023-03-10T22:32:56.861Z,9.80
2023-03-10T22:35:24.367Z,9.80
2023-03-10T22:37:52.048Z,9.80
2023-03-10T22:40:23.152Z,9.70
2023-03-10T22:42:50.173Z,9.70
2023-03-10T22:45:26.623Z,9.70
2023-03-10T22:47:56.672Z,9.70
2023-03-10T22:50:29.810Z,9.70
2023-03-10T22:52:56.776Z,9.60
2023-03-10T22:55:26.327Z,9.60
2023-03-10T22:57:54.106Z,9.60
2023-03-10T23:00:22.706Z,9.60
2023-03-10T23:02:52.391Z,9.60
2023-03-10T23:05:20.400Z,9.60
2023-03-10T23:07:53.746Z,9.70
2023-03-10T23:10:28.405Z,9.60
2023-03-10T23:13:00.577Z,9.60
2023-03-10T23:15:30.942Z,9.60
2023-03-10T23:18:00.046Z,9.60
2023-03-10T23:20:30.701Z,9.60
2023-03-10T23:22:59.623Z,9.60
2023-03-10T23:25:47.797Z,9.50
2023-03-10T23:28:15.921Z,9.60
2023-03-10T23:30:46.181Z,9.60
2023-03-10T23:33:18.419Z,9.60
2023-03-10T23:35:47.370Z,9.60
2023-03-10T23:38:14.519Z,9.50
2023-03-10T23:40:41.482Z,9.50
2023-03-10T23:43:08.653Z,9.50
2023-03-10T23:45:38.239Z,9.50
2023-03-10T23:48:08.666Z,9.50
2023-03-10T23:50:38.395Z,9.50
2023-03-10T23:53:08.698Z,9.40
2023-03-10T23:55:40.161Z,9.40
2023-03-10T23:58:09.169Z,9.40
